Time;durP1;ratioP1;P1;durP2;ratioP2;P2;SDS_P1;SDS_P2;PMS_P1;PMS_P2;Temp;Humidity;BMP_temperature;BMP_pressure;BME280_temperature;BME280_humidity;BME280_pressure;Samples;Min_cycle;Max_cycle;Signal;HPM_P1;HPM_P2
2022/01/31 00:01:34;;;;;;;16.20;2.60;;;6.80;99.90;;;;;;5060806;28;20202;-90
2022/01/31 00:04:00;;;;;;;12.68;3.17;;;6.90;99.90;;;;;;5060334;28;20179;-89
2022/01/31 00:06:25;;;;;;;14.60;2.75;;;6.80;99.90;;;;;;5058817;28;20231;-79
2022/01/31 00:08:52;;;;;;;5.45;2.88;;;6.90;99.90;;;;;;5059022;28;20167;-84
2022/01/31 00:11:19;;;;;;;17.48;3.20;;;6.90;99.90;;;;;;5063336;28;20579;-90
2022/01/31 00:13:55;;;;;;;8.40;2.25;;;7.00;99.90;;;;;;5071877;28;20160;-81
2022/01/31 00:16:24;;;;;;;10.55;2.65;;;7.00;99.90;;;;;;5073504;28;20170;-79
2022/01/31 00:18:50;;;;;;;14.15;4.28;;;7.00;99.90;;;;;;5072585;28;20168;-78
2022/01/31 00:21:16;;;;;;;20.63;2.95;;;6.90;99.90;;;;;;5063420;28;20583;-88
2022/01/31 00:23:42;;;;;;;16.25;3.03;;;7.00;99.90;;;;;;5068538;28;20167;-83
2022/01/31 00:26:08;;;;;;;16.02;3.38;;;6.90;99.90;;;;;;5068278;28;20656;-84
2022/01/31 00:28:35;;;;;;;16.58;3.75;;;6.90;99.90;;;;;;5072522;28;20151;-80
2022/01/31 00:31:01;;;;;;;9.73;3.58;;;6.90;99.90;;;;;;5075425;28;20193;-86
2022/01/31 00:33:26;;;;;;;12.38;3.40;;;6.90;99.90;;;;;;5056883;28;20219;-85
2022/01/31 00:35:53;;;;;;;12.68;2.78;;;6.80;99.90;;;;;;5074027;28;20623;-78
2022/01/31 00:38:19;;;;;;;14.18;2.78;;;6.80;99.90;;;;;;5063408;28;20206;-77
2022/01/31 00:40:44;;;;;;;24.52;3.88;;;6.70;99.90;;;;;;5064291;28;20159;-77
2022/01/31 00:43:12;;;;;;;16.98;3.33;;;6.70;99.90;;;;;;5066020;28;20197;-85
2022/01/31 00:45:45;;;;;;;12.48;2.78;;;6.80;99.90;;;;;;5066184;28;20529;-78
2022/01/31 00:48:17;;;;;;;13.20;2.67;;;6.90;99.90;;;;;;5067466;28;20224;-83
2022/01/31 00:50:46;;;;;;;19.02;3.13;;;6.90;99.90;;;;;;5054687;28;20159;-86
2022/01/31 00:53:12;;;;;;;9.95;2.67;;;6.90;99.90;;;;;;5066225;28;20198;-86
2022/01/31 00:55:38;;;;;;;9.52;2.83;;;6.80;99.90;;;;;;5061269;28;20164;-82
2022/01/31 00:58:04;;;;;;;14.68;2.38;;;6.80;99.90;;;;;;5061806;28;20242;-87
2022/01/31 01:00:29;;;;;;;14.35;2.58;;;6.90;99.90;;;;;;5061123;28;20171;-80
2022/01/31 01:02:55;;;;;;;9.38;2.92;;;6.90;99.90;;;;;;5059893;28;20187;-78
2022/01/31 01:05:21;;;;;;;9.65;2.50;;;7.00;99.90;;;;;;5060391;28;20163;-82
2022/01/31 01:07:46;;;;;;;11.65;2.70;;;7.10;99.90;;;;;;5060385;28;20203;-85
2022/01/31 01:10:15;;;;;;;4.72;2.38;;;7.10;99.90;;;;;;5060046;28;20593;-78
2022/01/31 01:12:43;;;;;;;11.40;3.28;;;7.10;99.90;;;;;;5059672;28;20214;-77
2022/01/31 01:15:11;;;;;;;5.78;2.53;;;7.10;99.90;;;;;;5060604;28;20167;-78
2022/01/31 01:17:37;;;;;;;15.65;2.42;;;7.00;99.90;;;;;;5060776;28;20179;-81
2022/01/31 01:20:04;;;;;;;9.48;2.13;;;7.00;99.90;;;;;;5061171;28;20515;-83
2022/01/31 01:22:30;;;;;;;11.35;2.72;;;6.90;99.90;;;;;;5060362;28;20258;-79
2022/01/31 01:24:56;;;;;;;4.40;2.10;;;7.00;99.90;;;;;;5061054;28;20236;-79
2022/01/31 01:27:23;;;;;;;11.80;2.00;;;6.90;99.90;;;;;;5062504;28;20203;-78
2022/01/31 01:29:49;;;;;;;14.48;3.05;;;6.90;99.90;;;;;;5063457;28;20161;-79
2022/01/31 01:32:16;;;;;;;10.15;2.63;;;6.90;99.90;;;;;;5061985;28;21292;-80
2022/01/31 01:34:43;;;;;;;12.18;2.40;;;7.00;99.90;;;;;;5063194;28;20151;-79
2022/01/31 01:37:08;;;;;;;7.95;1.95;;;6.90;99.90;;;;;;5063035;28;20634;-88
2022/01/31 01:39:34;;;;;;;11.77;2.75;;;6.80;99.90;;;;;;5056487;28;20167;-78
2022/01/31 01:42:02;;;;;;;11.00;2.78;;;6.90;99.90;;;;;;5060202;28;20195;-79
2022/01/31 01:44:46;;;;;;;9.20;2.72;;;7.00;99.90;;;;;;5066885;28;20510;-78
2022/01/31 01:47:15;;;;;;;9.82;2.53;;;6.80;99.90;;;;;;5064592;28;20191;-78
2022/01/31 01:49:41;;;;;;;19.58;2.97;;;6.70;99.90;;;;;;5063589;28;20174;-79
2022/01/31 01:52:07;;;;;;;8.90;2.55;;;6.70;99.90;;;;;;5063878;28;20199;-79
2022/01/31 01:54:33;;;;;;;14.18;2.88;;;6.80;99.90;;;;;;5063139;28;20253;-80
2022/01/31 01:57:03;;;;;;;6.30;2.05;;;6.70;99.90;;;;;;5060721;28;20251;-78
2022/01/31 01:59:35;;;;;;;18.73;2.30;;;6.70;99.90;;;;;;5063396;28;20226;-82
2022/01/31 02:02:05;;;;;;;6.47;2.25;;;6.70;99.90;;;;;;5063776;28;20195;-84
2022/01/31 02:04:32;;;;;;;10.75;2.70;;;6.80;99.90;;;;;;5064460;28;20203;-78
2022/01/31 02:06:58;;;;;;;11.10;3.08;;;6.70;99.90;;;;;;5063658;28;20230;-79
2022/01/31 02:09:27;;;;;;;12.50;2.72;;;6.80;99.90;;;;;;5061830;28;20171;-79
2022/01/31 02:11:54;;;;;;;10.60;3.17;;;6.80;99.90;;;;;;5061382;28;20210;-78
2022/01/31 02:14:32;;;;;;;6.15;2.58;;;6.80;99.90;;;;;;5060866;28;20159;-84
2022/01/31 02:16:57;;;;;;;15.15;2.80;;;6.90;99.90;;;;;;5060982;28;20174;-89
2022/01/31 02:19:25;;;;;;;9.27;2.60;;;6.80;99.90;;;;;;5060165;28;20171;-80
2022/01/31 02:21:52;;;;;;;9.98;2.47;;;6.70;99.90;;;;;;5054706;28;20206;-83
2022/01/31 02:24:18;;;;;;;16.02;2.90;;;6.80;99.90;;;;;;5053762;28;20721;-81
2022/01/31 02:26:44;;;;;;;11.55;2.90;;;6.70;99.90;;;;;;5053063;28;20594;-81
2022/01/31 02:29:13;;;;;;;7.85;2.92;;;6.80;99.90;;;;;;5053350;28;20198;-83
2022/01/31 02:31:49;;;;;;;6.30;2.75;;;6.80;99.90;;;;;;5053169;28;20191;-88
2022/01/31 02:34:16;;;;;;;8.02;2.70;;;6.80;99.90;;;;;;5054130;28;20167;-78
2022/01/31 02:36:42;;;;;;;8.52;2.63;;;6.70;99.90;;;;;;5057329;28;20163;-81
2022/01/31 02:39:09;;;;;;;11.82;2.58;;;6.60;99.90;;;;;;5057434;28;20252;-78
2022/01/31 02:41:55;;;;;;;5.85;2.72;;;6.70;99.90;;;;;;5059209;28;20186;-77
2022/01/31 02:44:21;;;;;;;7.75;1.75;;;6.80;99.90;;;;;;5067275;28;20177;-79
2022/01/31 02:46:53;;;;;;;4.10;1.45;;;6.70;99.90;;;;;;5071928;28;20258;-82
2022/01/31 02:49:29;;;;;;;5.38;1.88;;;6.70;99.90;;;;;;5067343;28;20167;-77
2022/01/31 02:51:59;;;;;;;3.40;1.55;;;6.70;99.90;;;;;;5075694;28;20186;-83
2022/01/31 02:54:26;;;;;;;2.15;1.33;;;6.80;99.90;;;;;;5080352;28;20246;-81
2022/01/31 02:56:52;;;;;;;3.78;1.58;;;6.90;99.90;;;;;;5067800;28;20173;-89
2022/01/31 02:59:18;;;;;;;3.85;1.98;;;6.80;99.90;;;;;;5057384;28;20198;-88
2022/01/31 03:01:43;;;;;;;2.08;1.45;;;6.90;99.90;;;;;;5056931;28;20187;-79
2022/01/31 03:04:16;;;;;;;3.38;2.03;;;6.90;99.90;;;;;;5061761;28;20175;-79
2022/01/31 03:06:49;;;;;;;4.78;2.00;;;6.90;99.90;;;;;;5064636;28;20733;-79
2022/01/31 03:09:15;;;;;;;4.38;1.17;;;6.90;99.90;;;;;;5068341;28;20163;-78
2022/01/31 03:11:41;;;;;;;5.75;1.27;;;7.00;99.90;;;;;;5062925;28;20317;-81
2022/01/31 03:14:06;;;;;;;2.85;1.20;;;7.10;99.90;;;;;;5064847;28;20170;-90
2022/01/31 03:16:34;;;;;;;7.63;1.67;;;7.20;99.90;;;;;;5065408;28;20515;-90
2022/01/31 03:19:00;;;;;;;4.75;1.52;;;7.20;99.90;;;;;;5063963;28;20175;-81
2022/01/31 03:21:26;;;;;;;7.00;1.70;;;7.10;99.90;;;;;;5064590;28;20294;-90
2022/01/31 03:23:51;;;;;;;6.97;1.55;;;7.20;99.90;;;;;;5063459;28;20189;-77
2022/01/31 03:26:18;;;;;;;8.25;2.22;;;7.20;99.90;;;;;;5061049;28;20174;-78
2022/01/31 03:28:44;;;;;;;7.10;1.77;;;7.20;99.90;;;;;;5065601;28;20171;-89
2022/01/31 03:31:10;;;;;;;10.27;2.17;;;7.30;99.90;;;;;;5064262;28;20178;-89
2022/01/31 03:33:36;;;;;;;6.32;1.92;;;7.30;99.90;;;;;;5062303;28;20171;-80
2022/01/31 03:36:02;;;;;;;6.82;1.67;;;7.40;99.90;;;;;;5062468;28;20166;-90
2022/01/31 03:38:28;;;;;;;10.25;2.40;;;7.40;99.90;;;;;;5062681;28;20163;-84
2022/01/31 03:40:53;;;;;;;9.75;1.50;;;7.40;99.90;;;;;;5064289;28;20174;-78
2022/01/31 03:43:19;;;;;;;8.30;2.15;;;7.40;99.90;;;;;;5063529;28;20191;-91
2022/01/31 03:45:45;;;;;;;7.80;1.40;;;7.50;99.90;;;;;;5060832;28;20234;-89
2022/01/31 03:48:11;;;;;;;7.82;1.80;;;7.40;99.90;;;;;;5062234;28;20252;-90
2022/01/31 03:50:36;;;;;;;11.60;3.08;;;7.50;99.90;;;;;;5063274;28;20163;-83
2022/01/31 03:53:02;;;;;;;8.50;1.70;;;7.50;99.90;;;;;;5062198;28;20234;-81
2022/01/31 03:55:28;;;;;;;9.73;1.55;;;7.40;99.90;;;;;;5057519;28;20573;-86
2022/01/31 03:57:54;;;;;;;6.30;1.67;;;7.50;99.90;;;;;;5064157;28;20171;-77
2022/01/31 04:00:22;;;;;;;5.13;1.50;;;7.40;99.90;;;;;;5058523;28;20672;-85
2022/01/31 04:02:48;;;;;;;10.73;1.30;;;7.30;99.90;;;;;;5058247;28;20187;-78
2022/01/31 04:05:14;;;;;;;4.25;0.90;;;7.30;99.90;;;;;;5059191;28;20217;-89
2022/01/31 04:07:42;;;;;;;8.90;1.23;;;7.30;99.90;;;;;;5058247;28;20471;-85
2022/01/31 04:10:08;;;;;;;9.13;1.35;;;7.20;99.90;;;;;;5059031;28;20175;-85
2022/01/31 04:12:35;;;;;;;13.75;1.70;;;7.20;99.90;;;;;;5059483;28;20183;-88
2022/01/31 04:15:00;;;;;;;6.57;1.75;;;7.20;99.90;;;;;;5060316;28;20274;-87
2022/01/31 04:17:26;;;;;;;5.00;1.10;;;7.10;99.90;;;;;;5060617;28;20671;-78
2022/01/31 04:19:52;;;;;;;8.82;1.55;;;7.10;99.90;;;;;;5058912;28;20581;-77
2022/01/31 04:22:20;;;;;;;9.85;1.45;;;7.10;99.90;;;;;;5042744;28;20222;-79
2022/01/31 04:24:48;;;;;;;3.83;0.90;;;7.00;99.90;;;;;;5060581;28;20195;-78
2022/01/31 04:27:18;;;;;;;3.03;1.00;;;7.00;99.90;;;;;;5060621;28;20205;-90
2022/01/31 04:29:45;;;;;;;2.70;1.10;;;7.00;99.90;;;;;;5060021;28;20541;-90
2022/01/31 04:32:10;;;;;;;3.63;1.10;;;6.90;99.90;;;;;;5058278;28;20774;-86
2022/01/31 04:34:36;;;;;;;12.45;1.48;;;6.90;99.90;;;;;;5058672;28;20211;-91
2022/01/31 04:37:03;;;;;;;5.55;1.30;;;7.00;99.90;;;;;;5057029;28;20532;-86
2022/01/31 04:39:31;;;;;;;7.47;1.30;;;7.10;99.90;;;;;;5057287;28;20711;-88
2022/01/31 04:41:57;;;;;;;7.88;1.30;;;7.10;99.90;;;;;;5059331;28;20842;-90
2022/01/31 04:44:23;;;;;;;7.15;1.30;;;7.20;99.90;;;;;;5059303;28;20159;-83
2022/01/31 04:46:49;;;;;;;9.05;1.17;;;7.20;99.90;;;;;;5062275;28;20209;-91
2022/01/31 04:49:16;;;;;;;5.75;1.08;;;7.10;99.90;;;;;;5061800;28;20174;-82
2022/01/31 04:51:42;;;;;;;4.07;1.52;;;7.10;99.90;;;;;;5056781;28;20191;-86
2022/01/31 04:54:08;;;;;;;5.28;1.02;;;7.20;99.90;;;;;;5063556;28;20628;-83
2022/01/31 04:56:35;;;;;;;12.15;1.50;;;7.20;99.90;;;;;;5067592;28;20175;-88
2022/01/31 05:03:54;;;;;;;8.20;1.90;;;7.30;99.90;;;;;;5070295;28;20202;-84
2022/01/31 05:06:27;;;;;;;7.85;1.20;;;7.20;99.90;;;;;;5060503;28;20576;-92
2022/01/31 05:08:52;;;;;;;6.35;0.80;;;7.30;99.90;;;;;;5061385;28;20241;-90
2022/01/31 05:11:18;;;;;;;12.32;1.60;;;7.30;99.90;;;;;;5060175;28;20640;-88
2022/01/31 05:13:46;;;;;;;10.18;1.42;;;7.30;99.90;;;;;;5063337;28;20195;-78
2022/01/31 05:16:12;;;;;;;6.63;1.08;;;7.30;99.90;;;;;;5066998;28;20219;-78
2022/01/31 05:18:38;;;;;;;3.30;1.08;;;7.40;99.90;;;;;;5069185;28;20167;-77
2022/01/31 05:21:08;;;;;;;7.13;1.30;;;7.40;99.90;;;;;;5062319;28;20167;-82
2022/01/31 05:23:37;;;;;;;8.23;1.50;;;7.40;99.90;;;;;;5065071;28;20163;-78
2022/01/31 05:26:03;;;;;;;8.57;1.25;;;7.40;99.90;;;;;;5071816;28;20246;-77
2022/01/31 05:28:29;;;;;;;3.97;1.30;;;7.30;99.90;;;;;;5071402;28;20198;-82
2022/01/31 05:30:54;;;;;;;10.50;1.70;;;7.30;99.90;;;;;;5078264;28;20174;-78
2022/01/31 05:33:20;;;;;;;12.27;1.65;;;7.40;99.90;;;;;;5056897;28;20391;-86
2022/01/31 05:35:45;;;;;;;8.00;1.70;;;7.40;99.90;;;;;;5068842;28;20246;-89
2022/01/31 05:38:12;;;;;;;5.15;1.10;;;7.40;99.90;;;;;;5060258;28;20167;-83
2022/01/31 05:40:38;;;;;;;22.42;2.25;;;7.30;99.90;;;;;;5055034;28;20171;-81
2022/01/31 05:43:04;;;;;;;12.82;1.70;;;7.40;99.90;;;;;;5056145;28;20243;-79
2022/01/31 05:45:29;;;;;;;13.10;2.00;;;7.30;99.90;;;;;;5060974;28;20178;-85
2022/01/31 05:47:55;;;;;;;9.02;1.27;;;7.30;99.90;;;;;;5059132;28;20285;-77
2022/01/31 05:50:21;;;;;;;8.05;1.70;;;7.40;99.90;;;;;;5052922;28;20178;-78
2022/01/31 05:52:46;;;;;;;7.43;1.35;;;7.40;99.90;;;;;;5054095;28;20234;-78
2022/01/31 05:55:13;;;;;;;6.95;1.25;;;7.40;99.90;;;;;;5053587;28;20190;-88
2022/01/31 05:57:39;;;;;;;5.53;1.42;;;7.40;99.90;;;;;;5053555;28;20167;-77
2022/01/31 06:00:08;;;;;;;12.95;1.40;;;7.50;99.90;;;;;;5053600;28;20695;-78
2022/01/31 06:02:35;;;;;;;6.72;1.33;;;7.40;99.90;;;;;;5052882;28;20191;-78
2022/01/31 06:05:02;;;;;;;4.07;1.00;;;7.40;99.90;;;;;;5053259;28;20190;-77
2022/01/31 06:07:27;;;;;;;3.28;1.35;;;7.40;99.90;;;;;;5053302;28;20319;-78
2022/01/31 06:09:53;;;;;;;10.63;1.98;;;7.40;99.90;;;;;;5051269;28;20171;-85
2022/01/31 06:12:18;;;;;;;2.53;0.95;;;7.50;99.90;;;;;;5053070;28;20187;-89
2022/01/31 06:14:44;;;;;;;6.32;1.40;;;7.50;99.90;;;;;;5053272;28;20163;-86
2022/01/31 06:17:09;;;;;;;5.70;1.80;;;7.50;99.90;;;;;;5052889;28;20525;-77
2022/01/31 06:19:35;;;;;;;3.35;1.15;;;7.40;99.90;;;;;;5052446;28;20167;-80
2022/01/31 06:22:00;;;;;;;5.85;1.58;;;7.40;99.90;;;;;;5052618;28;20679;-78
2022/01/31 06:24:27;;;;;;;6.43;1.63;;;7.40;99.90;;;;;;5052625;28;20163;-87
2022/01/31 06:26:53;;;;;;;10.68;1.70;;;7.40;99.90;;;;;;5053244;28;20195;-81
2022/01/31 06:29:19;;;;;;;13.77;2.58;;;7.40;99.90;;;;;;5053577;28;20257;-91
2022/01/31 06:31:44;;;;;;;9.60;1.70;;;7.40;99.90;;;;;;5051778;28;20633;-78
2022/01/31 06:34:10;;;;;;;10.18;1.73;;;7.40;99.90;;;;;;5051290;28;20220;-82
2022/01/31 06:36:36;;;;;;;17.73;1.70;;;7.40;99.90;;;;;;5053114;28;20170;-86
2022/01/31 06:39:03;;;;;;;14.55;2.38;;;7.40;99.90;;;;;;5052613;28;20163;-90
2022/01/31 06:41:29;;;;;;;7.93;1.70;;;7.40;99.90;;;;;;5051840;28;20191;-78
2022/01/31 06:43:55;;;;;;;8.45;1.35;;;7.40;99.90;;;;;;5052871;28;20193;-83
2022/01/31 06:46:21;;;;;;;12.20;1.30;;;7.40;99.90;;;;;;5052714;28;20627;-78
2022/01/31 06:48:47;;;;;;;8.40;1.73;;;7.40;99.90;;;;;;5052598;28;20182;-78
2022/01/31 06:51:13;;;;;;;9.48;1.90;;;7.50;99.90;;;;;;5052568;28;20167;-77
2022/01/31 06:53:40;;;;;;;6.68;1.50;;;7.50;99.90;;;;;;5051344;28;20697;-83
2022/01/31 06:56:06;;;;;;;15.05;2.17;;;7.50;99.90;;;;;;5054384;28;20210;-79
2022/01/31 06:58:31;;;;;;;3.90;1.48;;;7.50;99.90;;;;;;5054340;28;20620;-84
2022/01/31 07:00:58;;;;;;;6.18;1.35;;;7.50;99.90;;;;;;5057088;28;20167;-81
2022/01/31 07:03:24;;;;;;;10.35;1.67;;;7.40;99.90;;;;;;5054415;28;20206;-92
2022/01/31 07:05:50;;;;;;;9.50;2.65;;;7.50;99.90;;;;;;5053473;28;20202;-77
2022/01/31 07:08:16;;;;;;;12.35;2.08;;;7.50;99.90;;;;;;5052447;28;20231;-87
2022/01/31 07:10:50;;;;;;;7.72;1.58;;;7.50;99.90;;;;;;5051445;28;20164;-80
2022/01/31 07:15:57;;;;;;;6.93;1.70;;;7.50;99.90;;;;;;5053206;28;20190;-81
2022/01/31 07:18:23;;;;;;;8.48;1.77;;;7.40;99.90;;;;;;5051611;28;20167;-78
2022/01/31 07:20:51;;;;;;;7.10;1.45;;;7.40;99.90;;;;;;5052246;28;20185;-78
2022/01/31 07:23:24;;;;;;;25.40;2.72;;;7.40;99.90;;;;;;5055705;28;20206;-78
2022/01/31 07:25:49;;;;;;;8.13;1.42;;;7.40;99.90;;;;;;5056035;28;20616;-87
2022/01/31 07:28:16;;;;;;;9.85;1.40;;;7.40;99.90;;;;;;5055921;28;20244;-77
2022/01/31 07:30:48;;;;;;;16.17;1.70;;;7.50;99.90;;;;;;5057467;28;20156;-78
2022/01/31 07:33:15;;;;;;;31.27;2.53;;;7.50;99.90;;;;;;5055908;28;20179;-79
2022/01/31 07:35:42;;;;;;;12.98;2.05;;;7.40;99.90;;;;;;5056155;28;20159;-83
2022/01/31 07:38:08;;;;;;;9.25;1.60;;;7.50;99.90;;;;;;5056059;28;20632;-84
2022/01/31 07:40:33;;;;;;;5.25;1.23;;;7.50;99.90;;;;;;5056042;28;20173;-76
2022/01/31 07:42:59;;;;;;;13.77;2.10;;;7.40;99.90;;;;;;5055772;28;20222;-91
2022/01/31 07:45:25;;;;;;;43.25;4.03;;;7.50;99.90;;;;;;5056637;28;20178;-80
2022/01/31 07:47:51;;;;;;;14.88;1.85;;;7.50;99.90;;;;;;5054725;28;20203;-80
2022/01/31 07:50:16;;;;;;;16.30;3.03;;;7.50;99.90;;;;;;5055842;28;20190;-77
2022/01/31 07:52:43;;;;;;;9.10;2.15;;;7.50;99.90;;;;;;5039586;28;20248;-77
2022/01/31 07:55:10;;;;;;;10.60;1.75;;;7.50;99.90;;;;;;5039852;28;20194;-78
2022/01/31 07:57:37;;;;;;;12.13;2.40;;;7.50;99.90;;;;;;5052236;28;20198;-77
2022/01/31 08:00:06;;;;;;;12.00;2.70;;;7.50;99.90;;;;;;5077802;28;20167;-80
2022/01/31 08:02:31;;;;;;;9.32;1.75;;;7.50;99.90;;;;;;5061783;28;20301;-82
2022/01/31 08:04:57;;;;;;;7.32;2.03;;;7.50;99.90;;;;;;5055514;28;20628;-82
2022/01/31 08:07:23;;;;;;;3.80;1.40;;;7.50;99.90;;;;;;5055354;28;20206;-89
2022/01/31 08:09:49;;;;;;;8.65;2.22;;;7.50;99.90;;;;;;5055448;28;20178;-77
2022/01/31 08:12:14;;;;;;;11.70;1.20;;;7.50;99.90;;;;;;5054916;28;20628;-76
2022/01/31 08:14:41;;;;;;;6.80;1.88;;;7.50;99.90;;;;;;5054599;28;20167;-76
2022/01/31 08:17:07;;;;;;;11.50;2.25;;;7.50;99.90;;;;;;5056232;28;20163;-81
2022/01/31 08:19:33;;;;;;;8.75;1.77;;;7.50;99.90;;;;;;5054418;28;20163;-79
2022/01/31 08:21:59;;;;;;;16.17;2.25;;;7.50;99.90;;;;;;5050101;28;20659;-79
2022/01/31 08:24:25;;;;;;;9.15;2.13;;;7.50;99.90;;;;;;5054335;28;20174;-85
2022/01/31 08:26:51;;;;;;;6.63;1.67;;;7.50;99.90;;;;;;5054199;28;20564;-79
2022/01/31 08:29:23;;;;;;;18.02;2.10;;;7.50;99.90;;;;;;5054502;28;20232;-84
2022/01/31 08:31:52;;;;;;;6.10;1.52;;;7.50;99.90;;;;;;5052892;28;20632;-87
2022/01/31 08:34:23;;;;;;;12.10;1.75;;;7.40;99.90;;;;;;5055119;28;20167;-79
2022/01/31 08:36:49;;;;;;;18.15;1.90;;;7.50;99.90;;;;;;5053570;28;20172;-86
2022/01/31 08:39:20;;;;;;;10.20;2.33;;;7.50;99.90;;;;;;5053742;28;20183;-81
2022/01/31 08:41:49;;;;;;;7.93;1.85;;;7.50;99.90;;;;;;5053350;28;20266;-82
2022/01/31 08:44:18;;;;;;;14.35;1.98;;;7.50;99.90;;;;;;5054194;28;20217;-79
2022/01/31 08:46:45;;;;;;;10.65;2.00;;;7.60;99.90;;;;;;5053049;28;20214;-82
2022/01/31 08:49:13;;;;;;;11.07;1.77;;;7.50;99.90;;;;;;5048432;28;20232;-81
2022/01/31 08:51:39;;;;;;;17.60;1.70;;;7.50;99.90;;;;;;5054871;28;20190;-82
2022/01/31 08:54:08;;;;;;;6.38;1.85;;;7.50;99.90;;;;;;5055007;28;20533;-80
2022/01/31 08:56:40;;;;;;;5.80;1.60;;;7.60;99.90;;;;;;5055072;28;20220;-82
2022/01/31 08:59:07;;;;;;;14.32;1.90;;;7.60;99.90;;;;;;5054894;28;20171;-89
2022/01/31 09:01:33;;;;;;;12.43;2.55;;;7.60;99.90;;;;;;5053772;28;20240;-83
2022/01/31 09:04:04;;;;;;;13.15;2.25;;;7.60;99.90;;;;;;5054316;28;20167;-84
2022/01/31 09:06:32;;;;;;;12.10;2.55;;;7.50;99.90;;;;;;5054589;28;20633;-84
2022/01/31 09:08:59;;;;;;;13.25;1.42;;;7.50;99.90;;;;;;5051793;28;20288;-85
2022/01/31 09:11:25;;;;;;;9.65;1.90;;;7.50;99.90;;;;;;5052984;28;20171;-82
2022/01/31 09:13:51;;;;;;;18.38;2.05;;;7.40;99.90;;;;;;5054802;28;20171;-78
2022/01/31 09:16:17;;;;;;;13.95;2.08;;;7.40;99.90;;;;;;5055323;28;20159;-78
2022/01/31 09:18:44;;;;;;;7.00;1.92;;;7.40;99.90;;;;;;5055191;28;20671;-88
2022/01/31 09:21:10;;;;;;;7.75;2.28;;;7.50;99.90;;;;;;5054453;28;20624;-87
2022/01/31 09:23:37;;;;;;;6.35;1.98;;;7.50;99.90;;;;;;5060790;28;20171;-78
2022/01/31 09:26:03;;;;;;;14.85;2.25;;;7.60;99.90;;;;;;5072699;28;20146;-80
2022/01/31 09:28:29;;;;;;;10.13;1.83;;;7.50;99.90;;;;;;5075460;28;20199;-84
2022/01/31 09:30:55;;;;;;;7.45;2.70;;;7.50;99.90;;;;;;5068495;28;20182;-79
2022/01/31 09:33:22;;;;;;;11.05;2.95;;;7.50;99.90;;;;;;5061424;28;20218;-79
2022/01/31 09:35:48;;;;;;;16.30;3.03;;;7.50;99.90;;;;;;5059482;28;20185;-79
2022/01/31 09:38:16;;;;;;;11.55;1.83;;;7.50;99.90;;;;;;5054397;28;20195;-89
2022/01/31 09:40:43;;;;;;;11.55;1.70;;;7.60;99.90;;;;;;5053719;28;20173;-79
2022/01/31 09:46:30;;;;;;;9.75;1.95;;;7.50;99.90;;;;;;5053820;28;20701;-81
2022/01/31 09:48:49;;;;;;;10.93;2.10;;;7.60;99.90;;;;;;5052987;28;20179;-77
2022/01/31 09:51:20;;;;;;;14.75;2.40;;;7.60;99.90;;;;;;5053500;28;20163;-78
2022/01/31 09:53:47;;;;;;;18.00;2.22;;;7.70;99.90;;;;;;5053580;28;21236;-86
2022/01/31 09:56:16;;;;;;;18.67;3.35;;;7.60;99.90;;;;;;5053549;28;20195;-83
2022/01/31 09:58:42;;;;;;;12.35;3.08;;;7.70;99.90;;;;;;5053241;28;20507;-79
2022/01/31 10:01:09;;;;;;;23.38;2.35;;;7.60;99.90;;;;;;5053444;28;20178;-89
2022/01/31 10:03:50;;;;;;;13.88;1.90;;;7.70;99.90;;;;;;5053536;28;20183;-80
2022/01/31 10:06:26;;;;;;;11.98;2.05;;;7.60;99.90;;;;;;5047688;28;20199;-78
2022/01/31 10:09:09;;;;;;;21.40;2.15;;;7.40;99.90;;;;;;5051306;28;20212;-79
2022/01/31 10:11:53;;;;;;;11.40;1.50;;;7.20;99.90;;;;;;5052812;28;20282;-86
2022/01/31 10:17:30;;;;;;;7.88;2.28;;;6.80;99.90;;;;;;5052098;28;20253;-79
2022/01/31 10:20:00;;;;;;;9.32;2.33;;;7.00;99.90;;;;;;5039685;28;20214;-80
2022/01/31 10:22:28;;;;;;;56.10;6.72;;;7.20;99.90;;;;;;5049868;28;20214;-83
2022/01/31 10:24:56;;;;;;;10.68;2.42;;;7.30;99.90;;;;;;5051609;28;20173;-80
2022/01/31 10:27:24;;;;;;;20.40;3.20;;;7.30;99.90;;;;;;5052251;28;20217;-84
2022/01/31 10:29:52;;;;;;;5.40;2.40;;;7.50;99.90;;;;;;5052335;28;20217;-87
2022/01/31 10:32:30;;;;;;;19.23;3.03;;;7.50;99.90;;;;;;5052502;28;20187;-82
2022/01/31 10:34:59;;;;;;;30.75;4.13;;;7.70;99.90;;;;;;5051800;28;20159;-84
2022/01/31 10:37:26;;;;;;;10.20;2.53;;;7.60;99.90;;;;;;5050985;28;20218;-81
2022/01/31 10:45:35;;;;;;;10.38;2.10;;;7.70;99.90;;;;;;5053081;28;20178;-86
2022/01/31 10:51:26;;;;;;;15.40;1.73;;;7.60;99.90;;;;;;5052499;28;20217;-82
2022/01/31 10:54:00;;;;;;;13.15;2.25;;;7.60;99.90;;;;;;5051869;28;20187;-79
2022/01/31 10:56:39;;;;;;;8.52;2.38;;;7.70;99.90;;;;;;5045252;28;20176;-88
2022/01/31 10:59:08;;;;;;;10.40;2.65;;;7.70;99.90;;;;;;5036779;28;20179;-84
2022/01/31 11:01:37;;;;;;;4.85;1.35;;;7.50;99.90;;;;;;5036612;28;20188;-82
2022/01/31 11:04:05;;;;;;;11.50;2.38;;;7.60;99.90;;;;;;5037092;28;20531;-82
2022/01/31 11:06:31;;;;;;;7.80;2.42;;;7.50;99.90;;;;;;5050520;28;20172;-82
2022/01/31 11:09:04;;;;;;;13.43;2.47;;;7.50;99.90;;;;;;5055610;28;20177;-87
2022/01/31 11:11:32;;;;;;;9.73;2.45;;;7.50;99.90;;;;;;5056787;28;20187;-88
2022/01/31 11:13:59;;;;;;;8.73;1.90;;;7.60;99.90;;;;;;5055652;28;20199;-82
2022/01/31 11:16:25;;;;;;;10.73;1.80;;;7.60;99.90;;;;;;5054627;28;20174;-86
2022/01/31 11:18:53;;;;;;;8.82;2.35;;;7.70;99.90;;;;;;5056187;28;20686;-87
2022/01/31 11:21:20;;;;;;;15.60;1.98;;;7.80;99.90;;;;;;5054703;28;20168;-79
2022/01/31 11:23:50;;;;;;;14.55;2.63;;;8.00;99.90;;;;;;5053791;28;20198;-79
2022/01/31 11:26:18;;;;;;;23.10;2.75;;;8.00;99.90;;;;;;5055341;28;20167;-79
2022/01/31 11:28:47;;;;;;;15.05;2.72;;;7.90;99.90;;;;;;5055013;28;20698;-77
2022/01/31 11:31:13;;;;;;;13.50;2.40;;;7.90;99.90;;;;;;5055143;28;20167;-79
2022/01/31 11:33:39;;;;;;;12.35;2.72;;;7.90;99.90;;;;;;5055277;28;20171;-78
2022/01/31 11:36:05;;;;;;;10.27;2.10;;;7.90;99.90;;;;;;5055341;28;20175;-77
2022/01/31 11:38:32;;;;;;;11.43;1.98;;;7.60;99.90;;;;;;5055076;28;20163;-77
2022/01/31 11:41:05;;;;;;;6.78;2.45;;;7.50;99.90;;;;;;5054943;28;20213;-77
2022/01/31 11:43:32;;;;;;;15.43;2.58;;;7.50;99.90;;;;;;5053750;28;20171;-76
2022/01/31 11:46:00;;;;;;;12.23;2.75;;;7.40;99.90;;;;;;5055057;28;20171;-77
2022/01/31 11:48:29;;;;;;;18.90;2.22;;;7.20;99.90;;;;;;5053480;28;20199;-76
2022/01/31 11:50:57;;;;;;;15.45;2.95;;;7.00;99.90;;;;;;5055368;28;20210;-78
2022/01/31 11:53:41;;;;;;;9.68;2.33;;;6.90;99.90;;;;;;5053418;28;20199;-78
2022/01/31 11:56:17;;;;;;;13.15;2.97;;;6.80;99.90;;;;;;5054724;28;20605;-78
2022/01/31 11:58:51;;;;;;;14.32;2.47;;;6.70;99.90;;;;;;5053757;28;20170;-90
2022/01/31 12:01:23;;;;;;;18.83;2.38;;;6.50;99.90;;;;;;5054943;28;20166;-77
2022/01/31 12:03:55;;;;;;;14.75;2.17;;;6.60;99.90;;;;;;5054805;28;20190;-77
2022/01/31 12:06:23;;;;;;;18.40;2.33;;;6.70;99.90;;;;;;5053984;28;20171;-83
2022/01/31 12:08:50;;;;;;;15.25;2.63;;;6.70;99.90;;;;;;5055063;28;20202;-78
2022/01/31 12:11:22;;;;;;;12.80;2.97;;;6.70;99.90;;;;;;5054758;28;20173;-77
2022/01/31 12:13:52;;;;;;;13.30;2.63;;;6.70;99.90;;;;;;5054663;28;20167;-77
2022/01/31 12:16:30;;;;;;;12.75;2.28;;;6.80;99.90;;;;;;5054401;28;20168;-77
2022/01/31 12:24:29;;;;;;;21.50;2.78;;;7.10;99.90;;;;;;5054723;28;20211;-78
2022/01/31 12:27:11;;;;;;;13.48;2.65;;;7.30;99.90;;;;;;5054152;28;20200;-78
2022/01/31 12:29:46;;;;;;;10.98;3.40;;;7.30;99.90;;;;;;5050644;28;20186;-87
2022/01/31 12:32:27;;;;;;;21.65;3.45;;;7.30;99.90;;;;;;5056880;28;20671;-78
2022/01/31 12:35:00;;;;;;;23.50;3.20;;;7.30;99.90;;;;;;5062303;28;20250;-80
2022/01/31 12:37:26;;;;;;;17.00;2.55;;;7.30;99.90;;;;;;5054380;28;20179;-88
2022/01/31 12:40:17;;;;;;;11.07;2.33;;;7.10;99.90;;;;;;5053620;28;20254;-78
2022/01/31 12:42:55;;;;;;;11.55;3.47;;;7.10;99.90;;;;;;5054820;28;20282;-91
2022/01/31 12:45:31;;;;;;;16.00;2.15;;;7.10;99.90;;;;;;5055412;28;20171;-90
2022/01/31 12:48:22;;;;;;;20.73;2.50;;;7.10;99.90;;;;;;5056140;28;20301;-76
2022/01/31 12:50:53;;;;;;;18.38;3.95;;;7.10;99.90;;;;;;5054014;28;20163;-79
2022/01/31 12:53:45;;;;;;;18.10;2.33;;;7.20;99.90;;;;;;5052603;28;20206;-79
2022/01/31 12:56:23;;;;;;;11.52;3.80;;;7.20;99.90;;;;;;5037758;28;20221;-85
2022/01/31 12:59:10;;;;;;;21.30;3.35;;;7.30;99.90;;;;;;5034419;28;20167;-80
2022/01/31 13:01:42;;;;;;;18.85;3.72;;;7.40;99.90;;;;;;5034610;28;20556;-86
2022/01/31 13:04:12;;;;;;;17.15;2.45;;;7.20;99.90;;;;;;5034761;28;20160;-78
2022/01/31 13:06:48;;;;;;;21.77;3.65;;;7.20;99.90;;;;;;5034579;28;20179;-83
2022/01/31 13:09:28;;;;;;;23.85;3.53;;;7.00;99.90;;;;;;5034974;28;20267;-85
2022/01/31 13:12:01;;;;;;;20.33;3.58;;;7.00;99.90;;;;;;5035369;28;20191;-78
2022/01/31 13:14:29;;;;;;;21.52;3.38;;;7.10;99.90;;;;;;5036351;28;20558;-91
2022/01/31 13:17:00;;;;;;;16.25;2.25;;;7.00;99.90;;;;;;5036250;28;20194;-81
2022/01/31 13:19:28;;;;;;;16.50;2.83;;;7.00;99.90;;;;;;5035222;28;20191;-82
2022/01/31 13:21:56;;;;;;;19.02;3.03;;;7.00;99.90;;;;;;5034006;28;20199;-79
2022/01/31 13:24:33;;;;;;;13.60;3.13;;;7.00;99.90;;;;;;5033802;28;20176;-80